Time;durP1;ratioP1;P1;durP2;ratioP2;P2;SDS_P1;SDS_P2;PMS_P1;PMS_P2;Temp;Humidity;BMP_temperature;BMP_pressure;BME280_temperature;BME280_humidity;BME280_pressure;Samples;Min_cycle;Max_cycle;Signal;HPM_P1;HPM_P2
2022/04/09 00:00:17;;;;;;;15.37;10.00;;;;;;;37.38;44.32;100888.84;4753698;30;20844;-75
2022/04/09 00:02:43;;;;;;;17.60;6.80;;;;;;;37.38;44.30;100880.72;4752192;30;21005;-74
2022/04/09 00:05:11;;;;;;;17.50;7.20;;;;;;;37.36;44.85;100884.81;4752171;30;20499;-76
2022/04/09 00:07:38;;;;;;;36.23;8.73;;;;;;;37.48;44.15;100871.59;4751755;30;20518;-74
2022/04/09 00:10:06;;;;;;;19.27;9.07;;;;;;;37.39;44.08;100857.19;4751742;30;20525;-74
2022/04/09 00:12:32;;;;;;;20.40;10.60;;;;;;;36.97;45.53;100850.94;4750953;30;20429;-74
2022/04/09 00:14:59;;;;;;;23.23;7.60;;;;;;;37.12;44.66;100858.75;4750775;30;20481;-74
2022/04/09 00:17:25;;;;;;;23.70;8.90;;;;;;;37.19;45.12;100858.34;4750868;30;20425;-74
2022/04/09 00:19:52;;;;;;;22.03;9.20;;;;;;;37.19;45.37;100855.63;4751797;30;20467;-76
2022/04/09 00:22:19;;;;;;;18.57;10.37;;;;;;;37.16;45.53;100837.31;4750824;30;20472;-76
2022/04/09 00:24:45;;;;;;;22.23;8.10;;;;;;;37.35;45.06;100837.22;4751983;30;20419;-75
2022/04/09 00:27:13;;;;;;;16.73;8.40;;;;;;;37.31;45.01;100833.50;4750727;30;20437;-75
2022/04/09 00:30:08;;;;;;;19.30;8.57;;;;;;;37.36;45.25;100830.72;4750702;30;20432;-74
2022/04/09 00:32:35;;;;;;;23.50;8.33;;;;;;;37.08;44.65;100825.31;4750711;30;20453;-74
2022/04/09 00:35:02;;;;;;;12.60;6.77;;;;;;;37.17;45.07;100819.19;4735737;30;20457;-74
2022/04/09 00:37:29;;;;;;;18.07;9.60;;;;;;;37.38;44.91;100807.69;4750614;30;20437;-73
2022/04/09 00:39:56;;;;;;;21.20;7.77;;;;;;;37.22;45.41;100805.56;4750469;30;20448;-73
2022/04/09 00:42:22;;;;;;;16.57;8.13;;;;;;;36.97;45.69;100799.56;4752048;30;20474;-74
2022/04/09 00:44:50;;;;;;;17.93;10.00;;;;;;;37.11;45.86;100803.06;4752234;30;20456;-75
2022/04/09 00:47:17;;;;;;;21.13;7.80;;;;;;;36.90;46.18;100811.91;4750418;30;20449;-76
2022/04/09 00:49:43;;;;;;;20.40;8.07;;;;;;;37.27;45.36;100816.28;4751741;30;20452;-75
2022/04/09 00:52:10;;;;;;;17.53;7.87;;;;;;;37.07;45.84;100812.88;4736263;30;20485;-75
2022/04/09 00:54:38;;;;;;;12.10;6.80;;;;;;;37.11;46.18;100818.50;4750594;30;20538;-75
2022/04/09 00:57:06;;;;;;;18.40;6.63;;;;;;;37.18;45.94;100812.66;4736171;30;20433;-75
2022/04/09 00:59:39;;;;;;;17.90;7.00;;;;;;;37.13;45.68;100811.66;4750105;30;20478;-74
2022/04/09 01:02:05;;;;;;;21.70;8.27;;;;;;;37.31;45.35;100817.25;4750431;30;20480;-74
2022/04/09 01:04:32;;;;;;;17.93;7.23;;;;;;;37.41;44.92;100811.66;4751238;30;20451;-74
2022/04/09 01:07:00;;;;;;;20.33;8.50;;;;;;;37.48;45.06;100812.06;4750231;30;20933;-74
2022/04/09 01:09:26;;;;;;;15.90;6.90;;;;;;;37.40;44.59;100815.50;4749941;30;20593;-74
2022/04/09 01:11:53;;;;;;;20.27;9.43;;;;;;;37.25;45.14;100807.66;4749740;30;20440;-74
2022/04/09 01:14:19;;;;;;;21.97;6.93;;;;;;;37.19;46.24;100808.84;4749876;30;20485;-75
2022/04/09 01:16:46;;;;;;;19.13;7.60;;;;;;;37.43;45.35;100804.03;4749996;30;20816;-75
2022/04/09 01:19:13;;;;;;;16.67;8.10;;;;;;;37.48;45.37;100801.22;4750000;30;20461;-74
2022/04/09 01:21:40;;;;;;;19.10;8.37;;;;;;;37.33;45.50;100796.13;4751235;30;20472;-76
2022/04/09 01:24:06;;;;;;;24.93;11.07;;;;;;;37.42;45.06;100797.03;4752627;30;20870;-75
2022/04/09 01:26:32;;;;;;;28.37;7.87;;;;;;;37.35;45.22;100799.34;4755003;30;20409;-75
2022/04/09 01:28:59;;;;;;;17.87;9.90;;;;;;;37.33;45.23;100801.53;4753643;30;20545;-76
2022/04/09 01:31:25;;;;;;;28.73;7.93;;;;;;;37.41;44.50;100805.47;4753533;30;20492;-73
2022/04/09 01:33:51;;;;;;;19.73;9.00;;;;;;;37.31;45.04;100795.63;4755057;30;20452;-75
2022/04/09 01:36:17;;;;;;;17.23;7.73;;;;;;;37.27;44.88;100800.84;4754717;30;20428;-74
2022/04/09 01:38:43;;;;;;;19.80;8.83;;;;;;;37.35;45.17;100802.84;4753391;30;20949;-74
2022/04/09 01:41:09;;;;;;;24.57;7.87;;;;;;;37.17;45.72;100809.16;4753772;30;20477;-74
2022/04/09 01:43:38;;;;;;;21.63;7.63;;;;;;;37.41;45.50;100819.00;4739133;30;20440;-74
2022/04/09 01:46:04;;;;;;;19.97;8.17;;;;;;;37.52;45.22;100818.47;4754649;30;20415;-76
2022/04/09 01:48:30;;;;;;;24.20;8.00;;;;;;;37.61;44.96;100823.94;4754792;30;20500;-74
2022/04/09 01:50:56;;;;;;;26.43;10.40;;;;;;;37.64;45.02;100821.44;4754958;30;20413;-74
2022/04/09 01:53:22;;;;;;;15.53;6.70;;;;;;;37.33;46.01;100817.78;4753342;30;20433;-76
2022/04/09 01:55:48;;;;;;;20.67;7.17;;;;;;;37.39;45.81;100813.88;4754901;30;20413;-75
2022/04/09 01:58:14;;;;;;;18.40;8.67;;;;;;;37.52;46.28;100806.84;4753070;30;21004;-75
2022/04/09 02:00:40;;;;;;;17.30;8.30;;;;;;;37.44;46.31;100800.22;4753265;30;20538;-74
2022/04/09 02:03:06;;;;;;;28.47;8.67;;;;;;;37.46;45.92;100803.44;4753348;30;20499;-76
2022/04/09 02:05:34;;;;;;;19.40;10.10;;;;;;;37.50;45.49;100801.72;4753114;30;20436;-75
2022/04/09 02:08:01;;;;;;;14.87;9.07;;;;;;;37.45;45.06;100796.44;4738713;30;20566;-74
2022/04/09 02:10:28;;;;;;;14.10;5.80;;;;;;;37.42;45.83;100791.63;4753171;30;20997;-73
2022/04/09 02:12:54;;;;;;;24.10;9.93;;;;;;;37.48;45.82;100792.31;4753374;30;20437;-75
2022/04/09 02:15:20;;;;;;;18.00;8.70;;;;;;;37.50;45.57;100792.81;4752859;30;20497;-74
2022/04/09 02:17:46;;;;;;;14.20;7.33;;;;;;;37.58;45.32;100795.59;4754389;30;20500;-74
2022/04/09 02:20:14;;;;;;;23.23;8.57;;;;;;;37.70;45.17;100805.88;4753139;30;20437;-74
2022/04/09 02:22:45;;;;;;;21.57;10.07;;;;;;;37.58;45.47;100800.22;4752647;30;20497;-74
2022/04/09 02:25:16;;;;;;;20.17;6.90;;;;;;;37.47;45.24;100793.41;4752783;30;20436;-75
2022/04/09 02:27:42;;;;;;;18.20;8.10;;;;;;;37.42;45.49;100794.31;4755398;30;20414;-74
2022/04/09 02:30:10;;;;;;;13.53;6.77;;;;;;;37.57;45.80;100785.88;4754839;30;20414;-74
2022/04/09 02:32:44;;;;;;;27.53;9.40;;;;;;;37.55;45.16;100790.78;4754110;30;20421;-74
2022/04/09 02:35:11;;;;;;;16.30;7.53;;;;;;;37.44;45.54;100785.91;4752136;30;20969;-73
2022/04/09 02:37:38;;;;;;;14.33;7.63;;;;;;;37.38;45.84;100779.78;4754048;30;20500;-73
2022/04/09 02:40:05;;;;;;;17.80;9.07;;;;;;;37.30;45.95;100794.03;4752543;30;20429;-73
2022/04/09 02:42:31;;;;;;;20.07;8.10;;;;;;;37.14;46.17;100788.16;4752416;30;20476;-75
2022/04/09 02:44:57;;;;;;;17.50;5.80;;;;;;;37.26;46.18;100787.59;4752450;30;20445;-76
2022/04/09 02:47:23;;;;;;;17.33;7.60;;;;;;;37.44;45.33;100794.81;4752384;30;20441;-76
2022/04/09 02:49:49;;;;;;;16.93;8.83;;;;;;;37.24;45.23;100790.63;4752892;30;20448;-74
2022/04/09 02:52:15;;;;;;;15.23;7.03;;;;;;;37.13;45.43;100783.81;4752245;30;20429;-74
2022/04/09 02:54:41;;;;;;;23.80;8.30;;;;;;;37.23;45.87;100778.19;4753208;30;20445;-74
2022/04/09 02:57:07;;;;;;;14.00;6.37;;;;;;;37.25;45.11;100780.59;4752653;30;20445;-74
2022/04/09 02:59:33;;;;;;;18.43;6.87;;;;;;;37.15;45.81;100778.94;4753548;30;20968;-74
2022/04/09 03:01:59;;;;;;;14.40;7.37;;;;;;;37.17;45.90;100776.72;4752465;30;20999;-73
2022/04/09 03:04:26;;;;;;;14.47;7.00;;;;;;;37.27;45.18;100784.63;4752357;30;20793;-76
2022/04/09 03:06:52;;;;;;;12.00;7.20;;;;;;;37.30;45.56;100789.41;4752480;30;20835;-74
2022/04/09 03:09:18;;;;;;;14.37;7.17;;;;;;;37.42;45.48;100788.91;4752321;30;20884;-76
2022/04/09 03:11:44;;;;;;;25.57;9.10;;;;;;;37.38;45.21;100793.31;4752051;30;20425;-75
2022/04/09 03:14:10;;;;;;;14.67;8.90;;;;;;;37.32;45.47;100784.50;4751876;30;21077;-75
2022/04/09 03:16:36;;;;;;;19.97;7.83;;;;;;;37.22;45.82;100770.41;4752073;30;20449;-76
2022/04/09 03:19:02;;;;;;;12.67;6.07;;;;;;;37.40;45.59;100776.81;4751940;30;20461;-74
2022/04/09 03:21:28;;;;;;;23.23;8.10;;;;;;;37.39;45.13;100770.59;4736957;30;20488;-74
2022/04/09 03:23:54;;;;;;;17.93;7.53;;;;;;;37.48;45.17;100763.34;4752964;30;20422;-74
2022/04/09 03:26:20;;;;;;;19.87;7.13;;;;;;;37.36;44.92;100765.78;4736935;30;20469;-73
2022/04/09 03:28:47;;;;;;;19.07;7.90;;;;;;;37.34;45.00;100768.00;4751729;30;20488;-74
2022/04/09 03:31:13;;;;;;;16.30;7.47;;;;;;;37.32;45.16;100776.41;4752781;30;20483;-74
2022/04/09 03:33:39;;;;;;;18.73;7.77;;;;;;;37.41;45.04;100759.47;4737007;30;20957;-75
2022/04/09 03:36:06;;;;;;;29.37;9.23;;;;;;;37.29;45.31;100759.97;4751411;30;20992;-75
2022/04/09 03:38:33;;;;;;;22.73;7.50;;;;;;;37.41;45.60;100760.25;4751542;30;20437;-74
2022/04/09 03:40:59;;;;;;;19.73;7.07;;;;;;;37.47;45.54;100764.47;4722390;30;20860;-74
2022/04/09 03:43:26;;;;;;;18.40;7.77;;;;;;;37.34;45.51;100762.59;4736585;30;20437;-74
2022/04/09 03:45:52;;;;;;;15.70;7.57;;;;;;;37.20;45.87;100772.59;4752443;30;20410;-74
2022/04/09 03:48:18;;;;;;;10.07;5.90;;;;;;;37.34;45.59;100770.72;4751306;30;20469;-73
2022/04/09 03:50:44;;;;;;;13.50;7.43;;;;;;;37.46;45.58;100776.38;4751337;30;20433;-73
2022/04/09 03:53:10;;;;;;;17.13;7.17;;;;;;;37.37;46.02;100783.63;4751575;30;20441;-73
2022/04/09 03:55:36;;;;;;;22.50;7.23;;;;;;;37.43;45.28;100776.97;4751191;30;20437;-73
2022/04/09 03:58:02;;;;;;;19.97;7.17;;;;;;;37.23;45.48;100777.41;4736560;30;20996;-75
2022/04/09 04:00:28;;;;;;;23.50;9.20;;;;;;;37.22;44.97;100778.50;4750935;30;21010;-74
2022/04/09 04:02:57;;;;;;;14.57;7.83;;;;;;;37.27;45.32;100775.72;4752344;30;20464;-74
2022/04/09 04:05:23;;;;;;;19.40;7.87;;;;;;;36.99;45.58;100778.44;4750966;30;20864;-73
2022/04/09 04:07:49;;;;;;;17.70;6.70;;;;;;;37.12;45.80;100776.81;4751001;30;20445;-74
2022/04/09 04:10:15;;;;;;;22.90;8.70;;;;;;;37.11;45.99;100776.00;4750992;30;20479;-76
2022/04/09 04:12:42;;;;;;;16.83;9.27;;;;;;;36.94;46.49;100775.81;4750913;30;20433;-75
2022/04/09 04:15:09;;;;;;;15.63;7.87;;;;;;;36.95;46.59;100777.41;4752021;30;21056;-74
2022/04/09 04:17:43;;;;;;;15.53;9.00;;;;;;;36.93;46.91;100785.03;4750935;30;20464;-74
2022/04/09 04:20:11;;;;;;;19.27;10.10;;;;;;;36.88;46.74;100774.31;4736234;30;20448;-74
2022/04/09 04:22:37;;;;;;;21.23;12.77;;;;;;;36.93;46.73;100771.53;4750718;30;20527;-74
2022/04/09 04:25:04;;;;;;;22.03;13.00;;;;;;;36.95;46.88;100769.31;4736102;30;20429;-73
2022/04/09 04:27:31;;;;;;;19.43;13.73;;;;;;;36.76;46.46;100763.19;4736670;30;20432;-74
2022/04/09 04:30:02;;;;;;;23.20;14.90;;;;;;;36.80;47.00;100764.19;4750748;30;20557;-76
2022/04/09 04:32:28;;;;;;;34.87;14.67;;;;;;;36.70;47.37;100767.88;4736364;30;20406;-74
2022/04/09 04:34:55;;;;;;;28.40;15.93;;;;;;;36.58;47.44;100764.88;4751808;30;20489;-74
2022/04/09 04:37:21;;;;;;;27.70;18.70;;;;;;;36.55;47.04;100768.97;4750512;30;20657;-73
2022/04/09 04:39:47;;;;;;;31.97;18.70;;;;;;;36.57;46.86;100769.47;4751688;30;20480;-73
2022/04/09 04:42:13;;;;;;;31.33;17.23;;;;;;;36.63;47.31;100762.06;4751582;30;20861;-73
2022/04/09 04:44:39;;;;;;;27.20;15.43;;;;;;;36.61;47.27;100758.09;4750455;30;20523;-73
2022/04/09 04:47:06;;;;;;;30.93;16.90;;;;;;;36.64;47.31;100750.16;4751759;30;20440;-73
2022/04/09 04:49:32;;;;;;;28.90;17.07;;;;;;;36.64;47.38;100742.06;4750419;30;20416;-75
2022/04/09 04:51:58;;;;;;;32.00;18.07;;;;;;;36.62;47.68;100743.47;4750315;30;20456;-75
2022/04/09 04:54:24;;;;;;;25.77;18.20;;;;;;;36.65;47.07;100743.69;4751560;30;20417;-75
2022/04/09 04:56:50;;;;;;;26.93;17.00;;;;;;;36.89;46.45;100746.19;4751479;30;20488;-74
2022/04/09 04:59:16;;;;;;;29.70;18.47;;;;;;;36.96;46.43;100743.09;4749820;30;21020;-73
2022/04/09 05:01:42;;;;;;;25.60;20.00;;;;;;;36.99;46.39;100754.09;4750201;30;20476;-74
2022/04/09 05:04:09;;;;;;;28.50;18.57;;;;;;;36.95;46.09;100771.22;4750303;30;20439;-74
2022/04/09 05:06:35;;;;;;;36.77;21.77;;;;;;;36.90;46.39;100780.25;4750046;30;20457;-73
2022/04/09 05:09:01;;;;;;;31.73;19.70;;;;;;;36.75;47.11;100789.41;4750274;30;20452;-73
2022/04/09 05:11:27;;;;;;;45.33;22.03;;;;;;;36.51;47.84;100797.69;4751496;30;20440;-75
2022/04/09 05:13:53;;;;;;;27.80;18.90;;;;;;;36.17;47.85;100808.78;4751161;30;20512;-74
2022/04/09 05:16:19;;;;;;;27.37;20.90;;;;;;;35.60;49.61;100821.47;4750097;30;20467;-74
2022/04/09 05:18:45;;;;;;;30.40;19.20;;;;;;;35.64;49.87;100824.41;4750027;30;20463;-75
2022/04/09 05:21:11;;;;;;;31.93;23.20;;;;;;;35.18;50.80;100817.69;4749770;30;20436;-74
2022/04/09 05:23:38;;;;;;;25.63;19.80;;;;;;;35.30;50.41;100825.34;4750146;30;20455;-74
2022/04/09 05:26:04;;;;;;;34.80;22.40;;;;;;;35.30;50.43;100828.06;4750034;30;20445;-74
2022/04/09 05:28:30;;;;;;;40.83;20.07;;;;;;;35.49;49.85;100822.72;4749870;30;20441;-74
2022/04/09 05:30:56;;;;;;;32.50;19.20;;;;;;;35.84;48.96;100815.22;4751289;30;20424;-74
2022/04/09 05:33:22;;;;;;;41.87;23.80;;;;;;;35.95;49.03;100812.09;4751250;30;20475;-74
2022/04/09 05:35:48;;;;;;;52.97;35.43;;;;;;;35.90;48.58;100820.22;4750017;30;20502;-74
2022/04/09 05:38:14;;;;;;;58.63;37.03;;;;;;;35.99;48.53;100815.81;4751125;30;20435;-73
2022/04/09 05:40:42;;;;;;;46.10;32.40;;;;;;;35.96;48.57;100824.50;4749990;30;20468;-74
2022/04/09 05:43:08;;;;;;;42.00;28.53;;;;;;;35.63;49.23;100823.59;4749879;30;20473;-75
2022/04/09 05:45:34;;;;;;;38.67;24.83;;;;;;;35.73;48.84;100823.47;4749940;30;20447;-75
2022/04/09 05:48:00;;;;;;;39.73;27.07;;;;;;;35.87;48.74;100818.13;4749904;30;20520;-75
2022/04/09 05:50:26;;;;;;;35.67;25.10;;;;;;;36.13;48.11;100828.56;4749840;30;20436;-74
2022/04/09 05:52:54;;;;;;;36.07;25.47;;;;;;;36.15;47.79;100824.47;4750135;30;20441;-74
2022/04/09 05:55:20;;;;;;;42.40;26.23;;;;;;;35.89;48.92;100832.13;4749873;30;21033;-74
2022/04/09 05:57:46;;;;;;;40.27;27.93;;;;;;;35.87;48.26;100830.84;4749824;30;20437;-74
2022/04/09 06:00:14;;;;;;;33.37;23.40;;;;;;;35.63;49.46;100841.69;4749699;30;20460;-74
2022/04/09 06:02:40;;;;;;;41.63;27.10;;;;;;;35.33;49.91;100859.03;4749663;30;20939;-73
2022/04/09 06:05:07;;;;;;;35.67;22.80;;;;;;;35.11;50.74;100867.63;4749715;30;20468;-73
2022/04/09 06:07:33;;;;;;;44.37;23.77;;;;;;;35.23;50.67;100868.81;4749733;30;20429;-73
2022/04/09 06:09:59;;;;;;;38.17;24.60;;;;;;;35.32;50.18;100869.03;4753451;30;20454;-72
2022/04/09 06:12:25;;;;;;;37.80;24.60;;;;;;;35.29;49.97;100858.78;4752967;30;20437;-73
2022/04/09 06:14:51;;;;;;;32.47;22.33;;;;;;;35.34;49.87;100858.72;4752689;30;20492;-73
2022/04/09 06:17:17;;;;;;;35.00;23.40;;;;;;;35.33;49.77;100864.41;4753143;30;20429;-73
2022/04/09 06:19:44;;;;;;;34.83;21.70;;;;;;;35.61;49.30;100850.09;4752938;30;20429;-72
2022/04/09 06:22:10;;;;;;;33.30;24.70;;;;;;;35.93;48.13;100841.28;4752752;30;20472;-74
2022/04/09 06:24:36;;;;;;;37.27;27.70;;;;;;;35.89;48.15;100856.41;4753977;30;20425;-72
2022/04/09 06:27:02;;;;;;;44.13;29.60;;;;;;;35.48;49.46;100875.88;4752722;30;20444;-73
2022/04/09 06:29:28;;;;;;;42.07;26.87;;;;;;;34.80;50.73;100905.63;4752561;30;20468;-72
2022/04/09 06:31:54;;;;;;;34.17;26.27;;;;;;;34.27;52.69;100910.06;4752705;30;20499;-75
2022/04/09 06:34:20;;;;;;;45.40;31.63;;;;;;;34.75;51.68;100903.00;4752332;30;20972;-75
2022/04/09 06:36:46;;;;;;;37.70;25.60;;;;;;;35.28;50.40;100925.41;4752595;30;20444;-74
2022/04/09 06:39:12;;;;;;;41.60;31.30;;;;;;;35.05;51.08;100953.16;4752296;30;20465;-74
2022/04/09 06:41:38;;;;;;;35.10;30.30;;;;;;;34.90;51.03;100961.34;4753746;30;20473;-73
2022/04/09 06:44:06;;;;;;;43.00;28.90;;;;;;;35.27;50.18;100972.34;4752480;30;21026;-73
2022/04/09 06:46:32;;;;;;;49.37;30.90;;;;;;;34.99;50.96;100992.03;4752392;30;20525;-73
2022/04/09 06:48:58;;;;;;;55.50;28.50;;;;;;;34.81;50.95;101006.97;4752433;30;20441;-73
2022/04/09 06:51:24;;;;;;;43.80;30.83;;;;;;;35.05;50.50;100992.78;4752171;30;21046;-73
2022/04/09 06:53:50;;;;;;;35.77;25.43;;;;;;;35.62;49.35;100993.88;4752337;30;20528;-72
2022/04/09 06:56:16;;;;;;;35.50;28.23;;;;;;;35.82;48.69;101009.84;4753565;30;20421;-74
2022/04/09 06:58:42;;;;;;;47.83;29.60;;;;;;;35.27;49.96;101034.38;4752000;30;20461;-74
2022/04/09 07:01:09;;;;;;;46.10;27.63;;;;;;;35.22;50.68;101041.69;4752107;30;20442;-74
2022/04/09 07:03:36;;;;;;;43.20;25.77;;;;;;;35.37;50.22;101030.78;4752119;30;20421;-73
2022/04/09 07:06:02;;;;;;;42.40;26.87;;;;;;;35.22;50.71;101031.72;4752008;30;20455;-75
2022/04/09 07:08:28;;;;;;;36.30;26.63;;;;;;;35.62;49.67;101034.38;4753308;30;20491;-73
2022/04/09 07:10:54;;;;;;;44.30;25.53;;;;;;;35.84;49.53;101039.22;4752019;30;20437;-73
2022/04/09 07:13:20;;;;;;;46.13;23.97;;;;;;;35.67;49.31;101045.09;4751669;30;20443;-73
2022/04/09 07:15:46;;;;;;;36.53;24.40;;;;;;;35.52;50.23;101054.94;4751888;30;20438;-75
2022/04/09 07:18:12;;;;;;;44.97;24.37;;;;;;;35.28;50.56;101071.03;4751880;30;20429;-73
2022/04/09 07:20:40;;;;;;;30.60;20.77;;;;;;;35.43;50.17;101086.34;4751253;30;20437;-73
2022/04/09 07:23:06;;;;;;;35.67;21.63;;;;;;;35.35;49.92;101086.91;4751698;30;20469;-74
2022/04/09 07:25:33;;;;;;;37.43;24.20;;;;;;;34.74;51.50;101081.91;4751725;30;20472;-75
2022/04/09 07:27:59;;;;;;;40.87;25.07;;;;;;;34.37;52.22;101074.25;4751745;30;20441;-74
2022/04/09 07:30:26;;;;;;;33.20;22.80;;;;;;;34.59;52.00;101063.16;4742239;30;20498;-73
2022/04/09 07:32:56;;;;;;;28.77;22.50;;;;;;;35.20;51.09;101046.59;4741987;30;20438;-73
2022/04/09 07:35:22;;;;;;;29.20;22.07;;;;;;;35.82;48.86;101057.63;4743956;30;20425;-73
2022/04/09 07:37:50;;;;;;;31.83;20.70;;;;;;;35.77;48.58;101077.38;4741540;30;20433;-73
2022/04/09 07:40:19;;;;;;;31.10;17.90;;;;;;;35.30;50.11;101088.81;4746504;30;20984;-73
2022/04/09 07:42:46;;;;;;;33.10;21.07;;;;;;;35.61;49.31;101065.94;4743300;30;20824;-73
2022/04/09 07:45:14;;;;;;;23.03;16.03;;;;;;;35.90;48.71;101038.88;4742868;30;20421;-72
2022/04/09 07:47:41;;;;;;;27.47;16.77;;;;;;;36.38;47.39;101032.66;4735234;30;20819;-73
2022/04/09 07:50:10;;;;;;;38.03;18.30;;;;;;;36.31;47.88;101054.63;4749274;30;20433;-74
2022/04/09 07:52:42;;;;;;;18.90;15.37;;;;;;;35.52;49.76;101086.50;4750567;30;20943;-71
2022/04/09 07:55:11;;;;;;;22.73;16.50;;;;;;;36.00;48.97;101086.59;4738128;30;20446;-72
2022/04/09 07:57:39;;;;;;;23.10;16.73;;;;;;;36.33;47.96;101074.84;4756450;30;20807;-71
2022/04/09 08:00:06;;;;;;;21.47;16.63;;;;;;;36.04;48.26;101058.75;4748732;30;20465;-74
2022/04/09 08:02:33;;;;;;;22.53;14.97;;;;;;;36.39;47.53;101072.91;4751131;30;20461;-72
2022/04/09 08:04:59;;;;;;;26.13;17.10;;;;;;;36.56;47.41;101085.94;4749602;30;20525;-71
2022/04/09 08:07:25;;;;;;;32.37;22.17;;;;;;;36.69;47.26;101077.09;4749384;30;20441;-73
2022/04/09 08:09:51;;;;;;;24.73;15.23;;;;;;;36.68;46.36;101072.00;4751206;30;20421;-72
2022/04/09 08:12:17;;;;;;;26.37;18.00;;;;;;;36.54;47.54;101066.53;4750433;30;20529;-72
2022/04/09 08:14:44;;;;;;;20.73;16.80;;;;;;;36.76;46.69;101076.72;4735943;30;20539;-73
2022/04/09 08:17:10;;;;;;;25.40;16.23;;;;;;;36.83;47.04;101082.56;4733168;30;20442;-72
2022/04/09 08:19:36;;;;;;;21.03;16.83;;;;;;;36.82;47.09;101092.56;4746129;30;20852;-72
2022/04/09 08:22:04;;;;;;;30.00;18.93;;;;;;;37.06;46.63;101076.28;4750640;30;20476;-73
2022/04/09 08:24:30;;;;;;;27.80;17.93;;;;;;;37.21;46.25;101077.97;4750787;30;20507;-74
2022/04/09 08:26:56;;;;;;;23.97;15.43;;;;;;;37.15;45.92;101078.34;4750711;30;20465;-73
2022/04/09 08:29:23;;;;;;;22.93;14.80;;;;;;;37.37;45.76;101084.72;4753481;30;20493;-72
2022/04/09 08:31:50;;;;;;;28.13;17.67;;;;;;;37.43;45.82;101085.44;4751990;30;20494;-74
2022/04/09 08:34:17;;;;;;;26.80;17.47;;;;;;;37.56;44.96;101098.19;4757727;30;20434;-73
2022/04/09 08:36:44;;;;;;;25.93;16.30;;;;;;;37.55;45.16;101096.59;4745368;30;20471;-73
2022/04/09 08:39:11;;;;;;;23.67;17.60;;;;;;;37.56;45.00;101100.91;4751685;30;20445;-74
2022/04/09 08:41:40;;;;;;;29.30;17.37;;;;;;;37.78;45.30;101113.00;4750239;30;20609;-75
2022/04/09 08:44:07;;;;;;;31.07;17.83;;;;;;;37.69;45.05;101112.06;4750342;30;20477;-76
2022/04/09 08:46:34;;;;;;;25.00;16.80;;;;;;;37.83;44.88;101108.31;4752297;30;20455;-73
2022/04/09 08:49:04;;;;;;;33.87;22.57;;;;;;;37.85;44.93;101095.28;4750682;30;20471;-73
2022/04/09 08:51:31;;;;;;;40.00;20.43;;;;;;;37.87;44.58;101089.56;4748164;30;20457;-73
2022/04/09 08:54:00;;;;;;;29.30;18.70;;;;;;;37.76;45.05;101082.72;4749103;30;20469;-75
2022/04/09 08:56:26;;;;;;;26.47;17.10;;;;;;;37.80;45.00;101071.00;4746994;30;20472;-73
2022/04/09 08:58:53;;;;;;;30.07;17.23;;;;;;;37.63;45.24;101052.63;4748682;30;20508;-72
2022/04/09 09:01:22;;;;;;;27.43;17.33;;;;;;;37.76;45.03;101045.63;4748825;30;20465;-72
2022/04/09 09:03:48;;;;;;;39.90;19.23;;;;;;;37.87;45.13;101055.16;4748825;30;20441;-76
2022/04/09 09:06:32;;;;;;;24.87;17.30;;;;;;;37.86;45.33;101055.47;4748856;30;20465;-76
2022/04/09 09:09:00;;;;;;;32.23;19.17;;;;;;;37.85;44.75;101045.72;4748181;30;20437;-72
2022/04/09 09:11:27;;;;;;;35.80;18.37;;;;;;;37.89;45.02;101042.13;4746702;30;20437;-73
2022/04/09 09:13:55;;;;;;;32.13;18.20;;;;;;;37.86;44.92;101029.19;4748482;30;20944;-72
2022/04/09 09:16:32;;;;;;;26.53;16.70;;;;;;;37.82;45.24;101033.63;4748312;30;20553;-73
2022/04/09 09:19:03;;;;;;;36.27;15.07;;;;;;;37.87;45.04;101046.22;4748687;30;20720;-72
2022/04/09 09:21:29;;;;;;;18.90;7.33;;;;;;;37.38;41.03;101034.13;4746851;30;20481;-73
2022/04/09 09:24:07;;;;;;;18.00;8.70;;;;;;;37.06;41.84;101027.63;4748826;30;20437;-72
2022/04/09 09:26:39;;;;;;;11.20;6.00;;;;;;;36.96;42.34;101032.41;4750826;30;20464;-74
2022/04/09 09:29:08;;;;;;;24.60;11.33;;;;;;;36.83;43.34;101045.56;4749570;30;20451;-74
2022/04/09 09:31:45;;;;;;;18.30;10.50;;;;;;;36.76;43.35;101064.00;4745034;30;21091;-72
2022/04/09 09:34:13;;;;;;;23.17;9.83;;;;;;;36.89;43.24;101054.38;4746803;30;20506;-73
2022/04/09 09:36:42;;;;;;;24.60;11.60;;;;;;;36.95;42.33;101044.28;4737562;30;20439;-72
2022/04/09 09:39:13;;;;;;;19.30;8.87;;;;;;;36.97;43.03;101034.00;4743387;30;21012;-72
2022/04/09 09:42:06;;;;;;;17.43;9.07;;;;;;;37.12;42.37;101018.31;4737182;30;20469;-73
2022/04/09 09:44:45;;;;;;;20.43;9.30;;;;;;;37.12;42.02;100993.97;4738744;30;20459;-72
2022/04/09 09:47:17;;;;;;;21.00;10.23;;;;;;;37.42;41.04;100991.84;4743945;30;20433;-72
2022/04/09 09:49:58;;;;;;;15.93;8.90;;;;;;;37.43;41.13;100998.84;4744974;30;20491;-72
2022/04/09 09:52:30;;;;;;;27.87;10.73;;;;;;;37.66;40.67;100999.78;4736199;30;20956;-73
2022/04/09 09:54:59;;;;;;;22.40;12.00;;;;;;;37.63;40.79;100997.69;4753087;30;20952;-73
2022/04/09 09:57:28;;;;;;;20.53;10.70;;;;;;;37.62;39.97;101007.69;4742173;30;20430;-72
2022/04/09 10:00:04;;;;;;;17.13;10.03;;;;;;;37.67;39.89;101017.63;4749607;30;20494;-71
2022/04/09 10:02:31;;;;;;;21.00;9.30;;;;;;;37.60;39.41;101028.84;4739630;30;20498;-72
2022/04/09 10:04:57;;;;;;;18.57;9.97;;;;;;;37.55;39.34;101033.56;4745295;30;20438;-72
2022/04/09 10:07:24;;;;;;;21.40;11.33;;;;;;;37.62;39.57;101040.16;4745903;30;20465;-72
2022/04/09 10:09:51;;;;;;;19.40;10.20;;;;;;;37.56;39.75;101025.13;4742663;30;20475;-73
2022/04/09 10:12:22;;;;;;;21.57;11.40;;;;;;;37.65;39.10;101031.47;4752559;30;20417;-72
2022/04/09 10:14:59;;;;;;;19.50;11.40;;;;;;;37.56;38.35;101038.66;4752863;30;20499;-72
2022/04/09 10:17:28;;;;;;;15.87;10.97;;;;;;;37.53;37.68;101041.97;4745304;30;20442;-72
2022/04/09 10:19:57;;;;;;;33.30;13.93;;;;;;;37.56;37.63;101049.50;4741633;30;20531;-72
2022/04/09 10:22:34;;;;;;;23.20;12.13;;;;;;;37.49;37.18;101057.19;4761579;24;20542;-72
2022/04/09 10:25:03;;;;;;;19.60;11.80;;;;;;;37.25;37.46;101040.28;4738355;30;20449;-73
2022/04/09 10:27:40;;;;;;;17.73;9.67;;;;;;;37.15;37.33;101045.88;4737247;30;20525;-73
2022/04/09 10:30:28;;;;;;;23.17;8.70;;;;;;;36.76;38.03;101041.59;4733919;30;20446;-73
2022/04/09 10:32:59;;;;;;;13.30;8.00;;;;;;;36.83;38.17;101042.00;4733667;30;20441;-73
2022/04/09 10:35:38;;;;;;;18.47;8.00;;;;;;;36.67;37.90;101037.97;4731784;30;20533;-72
2022/04/09 10:38:10;;;;;;;14.83;9.10;;;;;;;36.84;37.51;101030.13;4727552;30;20529;-73
2022/04/09 10:40:57;;;;;;;14.67;8.17;;;;;;;36.76;37.85;101028.06;4733601;30;20426;-73
2022/04/09 10:43:25;;;;;;;16.37;7.27;;;;;;;36.51;38.45;101042.75;4725886;30;21061;-73
2022/04/09 10:46:01;;;;;;;14.97;6.37;;;;;;;36.50;38.39;101041.97;4734389;30;20438;-73
2022/04/09 10:48:31;;;;;;;25.77;9.80;;;;;;;36.42;38.42;101052.63;4733140;30;20453;-75
2022/04/09 10:51:04;;;;;;;14.43;8.07;;;;;;;36.39;38.50;101056.69;4734676;30;20434;-76
2022/04/09 10:53:32;;;;;;;16.23;9.47;;;;;;;36.43;38.34;101062.34;4734242;30;20515;-74
2022/04/09 10:56:14;;;;;;;15.33;9.83;;;;;;;36.47;38.04;101057.97;4717492;30;20442;-74
2022/04/09 10:59:01;;;;;;;29.17;10.53;;;;;;;36.74;37.78;101055.41;4733178;30;20471;-74
2022/04/09 11:01:49;;;;;;;18.50;11.70;;;;;;;36.82;37.21;101053.94;4734526;30;20422;-74
2022/04/09 11:04:28;;;;;;;30.30;11.77;;;;;;;36.84;37.29;101041.75;4735778;30;20452;-73
2022/04/09 11:07:07;;;;;;;21.63;12.47;;;;;;;36.84;36.69;101040.94;4734431;30;20430;-73
2022/04/09 11:09:42;;;;;;;24.53;15.60;;;;;;;36.85;36.79;101051.47;4734477;30;20503;-74
2022/04/09 11:12:08;;;;;;;21.10;11.57;;;;;;;36.72;36.71;101052.19;4717432;30;20845;-74
2022/04/09 11:14:45;;;;;;;26.63;13.17;;;;;;;36.71;37.33;101052.47;4732085;30;20529;-74